createdAt,value
2022-08-14T00:00:15.983Z,1.60
2022-08-14T00:03:02.965Z,1.52
2022-08-14T00:05:58.407Z,1.33
2022-08-14T00:08:47.292Z,1.27
2022-08-14T00:11:36.491Z,1.23
2022-08-14T00:14:31.004Z,1.40
2022-08-14T00:17:17.994Z,1.50
2022-08-14T00:20:08.227Z,1.50
2022-08-14T00:22:58.417Z,1.63
2022-08-14T00:25:54.095Z,1.33
2022-08-14T00:28:46.347Z,1.40
2022-08-14T00:31:35.131Z,1.67
2022-08-14T00:34:36.262Z,1.90
2022-08-14T00:37:34.651Z,1.63
2022-08-14T00:40:33.559Z,1.70
2022-08-14T00:43:22.575Z,1.50
2022-08-14T00:46:32.219Z,1.60
2022-08-14T00:49:21.121Z,1.50
2022-08-14T00:52:08.859Z,1.38
2022-08-14T00:55:02.227Z,1.40
2022-08-14T00:58:09.327Z,1.33
2022-08-14T01:00:57.340Z,1.35
2022-08-14T01:03:45.851Z,1.48
2022-08-14T01:06:40.106Z,1.30
2022-08-14T01:09:30.154Z,1.55
2022-08-14T01:12:27.077Z,1.40
2022-08-14T01:15:18.326Z,1.40
2022-08-14T01:18:23.988Z,1.40
2022-08-14T01:21:17.639Z,1.42
2022-08-14T01:24:07.512Z,1.30
2022-08-14T01:27:00.043Z,1.33
2022-08-14T01:30:01.258Z,1.35
2022-08-14T01:32:51.915Z,1.35
2022-08-14T01:36:03.830Z,1.50
2022-08-14T01:38:51.617Z,1.55
2022-08-14T01:41:39.292Z,1.30
2022-08-14T01:44:32.182Z,1.30
2022-08-14T01:47:22.237Z,1.52
2022-08-14T01:50:10.396Z,1.52
2022-08-14T01:53:02.066Z,1.33
2022-08-14T01:55:51.756Z,1.40
2022-08-14T01:58:55.640Z,1.45
2022-08-14T02:01:57.962Z,1.52
2022-08-14T02:04:57.127Z,1.60
2022-08-14T02:07:53.723Z,1.88
2022-08-14T02:10:46.604Z,1.60
2022-08-14T02:13:35.539Z,1.60
2022-08-14T02:16:29.634Z,1.60
2022-08-14T02:19:19.085Z,1.52
2022-08-14T02:22:07.699Z,1.40
2022-08-14T02:24:57.408Z,1.50
2022-08-14T02:28:23.956Z,1.80
2022-08-14T02:30:53.184Z,1.60
2022-08-14T02:33:41.945Z,1.50
2022-08-14T02:37:02.577Z,1.80
2022-08-14T02:39:39.067Z,1.60
2022-08-14T02:42:37.433Z,1.58
2022-08-14T02:45:33.464Z,1.80
2022-08-14T02:49:02.972Z,1.92
2022-08-14T02:51:38.890Z,1.88
2022-08-14T02:54:27.717Z,1.80
2022-08-14T02:57:39.797Z,2.08
2022-08-14T03:00:22.552Z,2.03
2022-08-14T03:03:09.667Z,1.70
2022-08-14T03:05:56.840Z,1.63
2022-08-14T03:08:46.167Z,1.85
2022-08-14T03:11:35.104Z,1.85
2022-08-14T03:14:27.425Z,1.70
2022-08-14T03:17:15.399Z,1.88
2022-08-14T03:20:06.647Z,1.90
2022-08-14T03:23:02.953Z,2.20
2022-08-14T03:25:51.466Z,2.10
2022-08-14T03:28:42.234Z,2.10
2022-08-14T03:31:30.139Z,2.25
2022-08-14T03:34:24.308Z,2.15
2022-08-14T03:37:39.395Z,1.77
2022-08-14T03:40:33.919Z,2.65
2022-08-14T03:43:21.428Z,2.90
2022-08-14T03:46:38.593Z,2.72
2022-08-14T03:49:24.324Z,2.65
2022-08-14T03:52:37.947Z,2.65
2022-08-14T03:58:12.987Z,3.10
2022-08-14T04:01:16.221Z,2.97
2022-08-14T04:04:06.298Z,3.88
2022-08-14T04:06:55.022Z,3.10
2022-08-14T04:09:46.231Z,4.25
2022-08-14T04:12:33.989Z,4.70
2022-08-14T04:15:23.556Z,5.68
2022-08-14T04:18:11.878Z,5.45
2022-08-14T04:20:59.481Z,5.00
2022-08-14T04:23:56.931Z,4.70
2022-08-14T04:26:45.100Z,4.50
2022-08-14T04:29:38.410Z,4.10
2022-08-14T04:33:01.331Z,3.67
2022-08-14T04:35:55.466Z,3.53
2022-08-14T04:38:59.339Z,4.05
2022-08-14T04:42:07.152Z,4.03
2022-08-14T04:45:01.396Z,3.60
2022-08-14T04:48:09.860Z,3.42
2022-08-14T04:50:57.397Z,2.90
2022-08-14T04:53:46.664Z,2.70
2022-08-14T04:56:35.480Z,2.65
2022-08-14T04:59:23.435Z,3.10
2022-08-14T05:02:10.669Z,2.72
2022-08-14T05:04:58.631Z,2.30
2022-08-14T05:07:54.016Z,2.70
2022-08-14T05:10:47.327Z,2.80
2022-08-14T05:13:59.588Z,3.78
2022-08-14T05:16:46.807Z,3.10
2022-08-14T05:19:36.533Z,3.42
2022-08-14T05:22:32.016Z,2.83
2022-08-14T05:25:19.509Z,3.08
2022-08-14T05:28:20.536Z,3.30
2022-08-14T05:31:08.080Z,3.08
2022-08-14T05:33:56.718Z,2.70
2022-08-14T05:36:50.332Z,3.10
2022-08-14T05:39:40.780Z,3.30
2022-08-14T05:42:29.152Z,3.60
2022-08-14T05:45:20.080Z,3.40
2022-08-14T05:48:07.996Z,3.40
2022-08-14T05:50:57.024Z,3.90
2022-08-14T05:53:44.235Z,3.90
2022-08-14T05:56:48.873Z,4.38
2022-08-14T05:59:40.117Z,4.38
2022-08-14T06:02:27.185Z,3.78
2022-08-14T06:05:16.383Z,3.88
2022-08-14T06:08:36.615Z,3.85
2022-08-14T06:11:31.187Z,4.63
2022-08-14T06:14:21.344Z,4.82
2022-08-14T06:17:11.192Z,4.10
2022-08-14T06:20:13.748Z,5.57
2022-08-14T06:23:00.922Z,5.88
2022-08-14T06:25:53.347Z,5.55
2022-08-14T06:28:41.026Z,4.57
2022-08-14T06:31:32.753Z,5.05
2022-08-14T06:35:11.583Z,5.45
2022-08-14T06:37:27.818Z,5.65
2022-08-14T06:40:27.838Z,6.43
2022-08-14T06:43:17.463Z,5.55
2022-08-14T06:46:06.843Z,5.85
2022-08-14T06:49:04.415Z,6.50
2022-08-14T06:51:52.501Z,6.10
2022-08-14T06:54:40.793Z,6.97
2022-08-14T06:57:37.619Z,7.00
2022-08-14T07:00:30.393Z,6.22
2022-08-14T07:03:37.033Z,6.32
2022-08-14T07:06:45.482Z,5.80
2022-08-14T07:09:43.604Z,6.50
2022-08-14T07:12:54.458Z,5.97
2022-08-14T07:15:49.255Z,5.53
2022-08-14T07:18:42.114Z,6.35
2022-08-14T07:21:29.879Z,5.53
2022-08-14T07:24:26.533Z,5.90
2022-08-14T07:27:18.288Z,5.78
2022-08-14T07:30:34.781Z,4.82
2022-08-14T07:33:17.539Z,5.30
2022-08-14T07:36:27.732Z,5.60
2022-08-14T07:39:17.489Z,5.57
2022-08-14T07:42:15.257Z,4.85
2022-08-14T07:45:07.407Z,4.70
2022-08-14T07:47:57.935Z,5.10
2022-08-14T07:50:46.209Z,5.05
2022-08-14T07:53:36.605Z,5.22
2022-08-14T07:56:44.125Z,4.63
2022-08-14T08:02:32.615Z,3.70
2022-08-14T08:08:27.211Z,3.25
2022-08-14T08:11:15.732Z,3.85
2022-08-14T08:14:17.327Z,3.72
2022-08-14T08:17:06.488Z,4.22
2022-08-14T08:19:54.111Z,4.00
2022-08-14T08:22:43.447Z,4.13
2022-08-14T08:25:39.964Z,4.35
2022-08-14T08:28:28.509Z,3.83
2022-08-14T08:31:15.713Z,3.97
2022-08-14T08:34:06.376Z,4.60
2022-08-14T08:36:53.525Z,3.58
2022-08-14T08:40:02.631Z,3.83
2022-08-14T08:42:52.026Z,3.45
2022-08-14T08:45:40.211Z,3.67
2022-08-14T08:48:31.806Z,3.67
2022-08-14T08:51:43.153Z,4.45
2022-08-14T08:54:31.101Z,3.63
2022-08-14T08:57:21.466Z,3.90
2022-08-14T09:00:25.430Z,3.78
2022-08-14T09:03:17.647Z,3.83
2022-08-14T09:07:00.974Z,3.85
2022-08-14T09:09:53.956Z,4.13
2022-08-14T09:12:51.683Z,3.60
2022-08-14T09:15:42.668Z,3.55
2022-08-14T09:18:30.300Z,3.53
2022-08-14T09:21:18.419Z,3.38
2022-08-14T09:24:30.218Z,3.13
2022-08-14T09:27:22.280Z,2.53
2022-08-14T09:30:31.029Z,2.78
2022-08-14T09:33:55.867Z,2.65
2022-08-14T09:37:07.266Z,2.95
2022-08-14T09:40:11.274Z,2.55
2022-08-14T09:43:30.918Z,2.60
2022-08-14T09:46:21.322Z,2.70
2022-08-14T09:49:16.638Z,2.42
2022-08-14T09:52:23.647Z,2.75
2022-08-14T09:55:24.151Z,2.63
2022-08-14T09:58:23.039Z,2.42
2022-08-14T10:01:14.199Z,2.60
2022-08-14T10:04:01.162Z,2.30
2022-08-14T10:06:48.898Z,2.42
2022-08-14T10:09:57.684Z,3.03
2022-08-14T10:12:53.151Z,2.38
2022-08-14T10:15:46.242Z,2.50
2022-08-14T10:18:34.268Z,2.60
2022-08-14T10:21:22.499Z,2.40
2022-08-14T10:24:24.411Z,2.22
2022-08-14T10:27:25.331Z,1.88
2022-08-14T10:30:22.471Z,1.80
2022-08-14T10:33:12.436Z,2.17
2022-08-14T10:36:00.942Z,2.17
2022-08-14T10:38:58.043Z,2.70
2022-08-14T10:41:49.160Z,3.00
2022-08-14T10:48:07.624Z,2.33
2022-08-14T10:50:51.466Z,2.63
2022-08-14T10:53:40.404Z,2.65
2022-08-14T10:56:34.249Z,2.25
2022-08-14T10:59:30.489Z,2.03
2022-08-14T11:02:22.345Z,2.17
2022-08-14T11:05:41.943Z,2.00
2022-08-14T11:08:34.142Z,2.10
2022-08-14T11:11:23.091Z,1.80
2022-08-14T11:14:10.005Z,1.65
2022-08-14T11:16:58.160Z,2.00
2022-08-14T11:19:45.719Z,2.08
2022-08-14T11:22:55.785Z,1.90
2022-08-14T11:25:53.478Z,2.97
2022-08-14T11:28:48.189Z,1.88
2022-08-14T11:31:39.005Z,1.58
2022-08-14T11:34:29.987Z,2.00
2022-08-14T11:37:33.860Z,1.60
2022-08-14T11:40:30.928Z,1.35
2022-08-14T11:43:22.748Z,1.38
2022-08-14T11:46:17.776Z,1.40
2022-08-14T11:49:27.320Z,1.30
2022-08-14T11:52:22.528Z,1.10
2022-08-14T11:55:12.902Z,1.20
2022-08-14T11:58:10.637Z,1.20
2022-08-14T12:01:07.018Z,1.20
2022-08-14T12:03:57.511Z,1.58
2022-08-14T12:06:53.815Z,1.40
2022-08-14T12:09:43.013Z,1.30
2022-08-14T12:12:35.630Z,1.23
2022-08-14T12:15:57.634Z,1.10
2022-08-14T12:18:50.888Z,1.20
2022-08-14T12:21:51.827Z,1.27
2022-08-14T12:24:46.505Z,1.20
2022-08-14T12:27:52.470Z,1.00
2022-08-14T12:30:44.067Z,1.10
2022-08-14T12:33:34.013Z,1.40
2022-08-14T12:36:21.827Z,1.25
2022-08-14T12:39:23.876Z,1.60
2022-08-14T12:42:11.903Z,1.23
2022-08-14T12:45:16.760Z,1.20
2022-08-14T12:48:21.295Z,1.30
2022-08-14T12:51:31.473Z,1.02
2022-08-14T12:54:28.407Z,1.27
2022-08-14T12:57:20.054Z,1.40
2022-08-14T13:00:24.628Z,1.15
2022-08-14T13:03:23.614Z,1.40
2022-08-14T13:06:14.782Z,1.10
2022-08-14T13:09:07.812Z,1.30
2022-08-14T13:12:32.576Z,1.00
2022-08-14T13:15:13.156Z,1.00
2022-08-14T13:18:04.799Z,1.17
2022-08-14T13:20:57.895Z,1.30
2022-08-14T13:23:49.819Z,1.20
2022-08-14T13:26:37.379Z,1.15
2022-08-14T13:29:28.313Z,1.52
2022-08-14T13:32:18.222Z,1.35
2022-08-14T13:35:16.275Z,1.30
2022-08-14T13:38:04.729Z,1.05
2022-08-14T13:40:56.068Z,1.30
2022-08-14T13:43:49.355Z,1.23
2022-08-14T13:46:48.529Z,1.10
2022-08-14T13:49:40.341Z,1.30
2022-08-14T13:52:55.129Z,1.17
2022-08-14T13:55:44.271Z,1.40
2022-08-14T13:58:39.346Z,1.30
2022-08-14T14:01:42.647Z,1.40
2022-08-14T14:04:31.340Z,1.42
2022-08-14T14:07:23.341Z,1.23
2022-08-14T14:10:11.561Z,1.40
2022-08-14T14:13:01.847Z,1.50
2022-08-14T14:15:58.340Z,1.30
2022-08-14T14:18:52.505Z,1.33
2022-08-14T14:21:40.453Z,1.20
2022-08-14T14:24:34.731Z,1.80
2022-08-14T14:27:40.626Z,1.40
2022-08-14T14:30:52.074Z,1.55
2022-08-14T14:33:48.988Z,1.65
2022-08-14T14:36:37.177Z,1.33
2022-08-14T14:39:29.048Z,0.95
2022-08-14T14:42:31.945Z,1.45
2022-08-14T14:45:23.557Z,1.50
2022-08-14T14:48:12.105Z,1.48
2022-08-14T14:51:03.363Z,1.00
2022-08-14T14:53:52.828Z,1.40
2022-08-14T14:56:50.258Z,1.85
2022-08-14T15:02:36.664Z,1.70
2022-08-14T15:05:24.496Z,1.60
2022-08-14T15:08:16.866Z,1.17
2022-08-14T15:11:05.531Z,1.20
2022-08-14T15:14:01.562Z,2.00
2022-08-14T15:17:08.727Z,1.75
2022-08-14T15:19:57.539Z,1.50
2022-08-14T15:22:51.294Z,1.63
2022-08-14T15:25:38.703Z,1.70
2022-08-14T15:28:27.334Z,1.50
2022-08-14T15:31:14.352Z,1.45
2022-08-14T15:34:45.808Z,1.63
2022-08-14T15:37:25.718Z,1.55
2022-08-14T15:40:22.514Z,1.60
2022-08-14T15:43:11.020Z,1.60
2022-08-14T15:46:06.351Z,1.15
2022-08-14T15:48:54.966Z,0.90
2022-08-14T15:51:43.583Z,0.60
2022-08-14T15:54:31.907Z,0.98
2022-08-14T15:57:21.270Z,0.57
2022-08-14T16:00:43.684Z,0.95
2022-08-14T16:03:35.300Z,0.95
2022-08-14T16:06:30.385Z,0.60
2022-08-14T16:09:17.426Z,0.90
2022-08-14T16:12:05.704Z,0.85
2022-08-14T16:14:52.877Z,0.90
2022-08-14T16:17:44.274Z,0.90
2022-08-14T16:20:42.007Z,0.90
2022-08-14T16:23:36.110Z,0.75
2022-08-14T16:26:29.876Z,0.90
2022-08-14T16:29:20.423Z,0.57
2022-08-14T16:32:32.759Z,0.70
2022-08-14T16:35:18.191Z,0.65
2022-08-14T16:38:44.698Z,0.80
2022-08-14T16:44:22.136Z,0.80
2022-08-14T16:47:17.531Z,0.80
2022-08-14T16:53:00.873Z,0.80
2022-08-14T16:56:17.236Z,0.63
2022-08-14T16:59:13.910Z,0.80
2022-08-14T17:02:05.243Z,0.90
2022-08-14T17:04:53.168Z,0.90
2022-08-14T17:07:45.806Z,1.00
2022-08-14T17:10:43.674Z,0.98
2022-08-14T17:13:57.683Z,1.05
2022-08-14T17:16:39.654Z,1.15
2022-08-14T17:19:27.035Z,1.20
2022-08-14T17:22:18.237Z,1.05
2022-08-14T17:25:05.783Z,1.25
2022-08-14T17:28:52.394Z,1.10
2022-08-14T17:31:58.600Z,1.02
2022-08-14T17:37:55.858Z,0.90
2022-08-14T17:40:43.588Z,1.10
2022-08-14T17:43:41.121Z,1.20
2022-08-14T17:46:37.098Z,1.10
2022-08-14T17:49:33.596Z,1.08
2022-08-14T17:52:34.126Z,1.10
2022-08-14T17:56:02.604Z,0.88
2022-08-14T17:58:38.600Z,1.52
2022-08-14T18:01:30.117Z,1.20
2022-08-14T18:04:27.787Z,1.33
2022-08-14T18:08:00.121Z,1.10
2022-08-14T18:10:52.906Z,1.35
2022-08-14T18:13:51.170Z,1.10
2022-08-14T18:16:42.466Z,1.33
2022-08-14T18:19:31.685Z,1.10
2022-08-14T18:22:37.005Z,1.40
2022-08-14T18:25:29.211Z,1.50
2022-08-14T18:28:18.423Z,1.40
2022-08-14T18:31:24.511Z,1.50
2022-08-14T18:34:31.335Z,1.20
2022-08-14T18:37:20.528Z,1.92
2022-08-14T18:40:17.654Z,1.10
2022-08-14T18:43:05.117Z,1.15
2022-08-14T18:46:01.069Z,1.00
2022-08-14T18:49:14.322Z,1.23
2022-08-14T18:52:18.886Z,1.30
2022-08-14T18:55:21.461Z,1.15
2022-08-14T18:58:31.452Z,1.45
2022-08-14T19:01:26.688Z,1.65
2022-08-14T19:04:36.054Z,1.88
2022-08-14T19:07:23.634Z,1.67
2022-08-14T19:10:16.994Z,1.70
2022-08-14T19:13:13.076Z,1.10
2022-08-14T19:16:23.324Z,1.50
2022-08-14T19:19:12.420Z,1.23
2022-08-14T19:21:59.800Z,1.48
2022-08-14T19:24:50.294Z,1.50
2022-08-14T19:27:37.976Z,1.65
2022-08-14T19:30:25.463Z,1.70
2022-08-14T19:33:46.714Z,1.45
2022-08-14T19:37:04.695Z,1.60
2022-08-14T19:39:54.930Z,1.58
2022-08-14T19:42:46.496Z,1.35
2022-08-14T19:45:34.473Z,1.30
2022-08-14T19:48:21.757Z,1.33
2022-08-14T19:51:08.861Z,1.30
2022-08-14T19:54:13.299Z,1.40
2022-08-14T19:57:01.298Z,1.55
2022-08-14T19:59:57.679Z,1.73
2022-08-14T20:02:49.102Z,1.33
2022-08-14T20:05:46.005Z,1.50
2022-08-14T20:10:59.505Z,1.50
2022-08-14T20:12:01.649Z,1.25
2022-08-14T20:14:51.909Z,1.48
2022-08-14T20:17:40.365Z,1.40
2022-08-14T20:20:32.066Z,1.48
2022-08-14T20:23:20.335Z,1.40
2022-08-14T20:26:31.974Z,1.42
2022-08-14T20:29:31.327Z,1.50
2022-08-14T20:32:32.505Z,1.52
2022-08-14T20:35:44.420Z,1.30
2022-08-14T20:38:34.789Z,1.67
2022-08-14T20:41:22.714Z,1.30
2022-08-14T20:44:28.953Z,4.82
2022-08-14T20:47:19.033Z,9.00
2022-08-14T20:50:16.571Z,7.18
2022-08-14T20:53:29.110Z,4.13
2022-08-14T20:56:28.142Z,2.72
2022-08-14T20:59:21.399Z,2.53
2022-08-14T21:02:29.449Z,1.70
2022-08-14T21:05:20.698Z,2.00
2022-08-14T21:08:22.552Z,2.42
2022-08-14T21:11:20.045Z,2.33
2022-08-14T21:14:24.561Z,2.40
2022-08-14T21:17:14.765Z,2.03
2022-08-14T21:20:26.547Z,2.10
2022-08-14T21:23:14.402Z,2.25
2022-08-14T21:28:52.603Z,2.40
2022-08-14T21:31:40.668Z,2.30
2022-08-14T21:34:32.353Z,1.88
2022-08-14T21:37:19.704Z,2.20
2022-08-14T21:40:40.888Z,2.30
2022-08-14T21:43:19.473Z,2.15
2022-08-14T21:46:06.556Z,2.00
2022-08-14T21:48:53.846Z,1.83
2022-08-14T21:51:53.984Z,1.88
2022-08-14T21:54:49.457Z,1.98
2022-08-14T21:58:42.627Z,1.88
2022-08-14T22:00:52.799Z,1.70
2022-08-14T22:03:45.356Z,1.98
2022-08-14T22:09:36.206Z,1.80
2022-08-14T22:12:58.271Z,1.70
2022-08-14T22:15:32.017Z,1.80
2022-08-14T22:18:21.596Z,2.00
2022-08-14T22:21:16.916Z,1.70
2022-08-14T22:24:10.710Z,1.73
2022-08-14T22:27:01.384Z,2.20
2022-08-14T22:29:54.783Z,2.25
2022-08-14T22:32:57.758Z,1.85
2022-08-14T22:35:45.595Z,1.83
2022-08-14T22:38:36.186Z,1.98
2022-08-14T22:41:31.571Z,1.98
2022-08-14T22:44:28.449Z,1.70
2022-08-14T22:47:16.173Z,1.67
2022-08-14T22:50:30.170Z,1.90
2022-08-14T22:53:12.029Z,2.00
2022-08-14T22:55:59.186Z,1.70
2022-08-14T22:58:46.563Z,2.03
2022-08-14T23:01:55.729Z,1.92
2022-08-14T23:04:54.624Z,1.77
2022-08-14T23:08:59.123Z,1.95
2022-08-14T23:10:49.784Z,1.90
2022-08-14T23:13:40.174Z,1.92
2022-08-14T23:16:31.379Z,2.00
2022-08-14T23:19:20.665Z,1.83
2022-08-14T23:22:09.444Z,2.13
2022-08-14T23:24:57.759Z,1.70
2022-08-14T23:28:03.178Z,1.98
2022-08-14T23:30:52.129Z,1.60
2022-08-14T23:33:46.012Z,1.70
2022-08-14T23:36:54.119Z,1.58
2022-08-14T23:39:42.377Z,1.70
2022-08-14T23:42:40.080Z,2.00
2022-08-14T23:45:36.404Z,1.95
2022-08-14T23:48:27.950Z,1.60
2022-08-14T23:51:18.142Z,2.15
2022-08-14T23:54:48.043Z,1.60
2022-08-14T23:57:14.804Z,1.80
